createdAt,value
2023-04-06T00:00:49.884Z,2.90
2023-04-06T00:01:49.971Z,2.60
2023-04-06T00:02:49.951Z,2.50
2023-04-06T00:03:49.872Z,2.30
2023-04-06T00:04:49.838Z,2.50
2023-04-06T00:05:49.855Z,2.50
2023-04-06T00:06:49.943Z,2.90
2023-04-06T00:07:49.814Z,2.90
2023-04-06T00:08:49.791Z,2.80
2023-04-06T00:09:49.819Z,2.90
2023-04-06T00:10:49.764Z,3.00
2023-04-06T00:11:49.824Z,2.70
2023-04-06T00:12:49.745Z,2.80
2023-04-06T00:13:49.796Z,2.70
2023-04-06T00:14:49.792Z,2.70
2023-04-06T00:15:49.752Z,2.50
2023-04-06T00:16:49.793Z,2.50
2023-04-06T00:17:49.854Z,2.80
2023-04-06T00:18:49.698Z,2.60
2023-04-06T00:19:49.681Z,2.80
2023-04-06T00:20:49.674Z,2.50
2023-04-06T00:21:49.959Z,2.60
2023-04-06T00:22:49.697Z,2.70
2023-04-06T00:23:49.636Z,2.60
2023-04-06T00:24:49.642Z,2.40
2023-04-06T00:25:49.617Z,2.40
2023-04-06T00:26:49.672Z,2.60
2023-04-06T00:27:49.617Z,2.60
2023-04-06T00:28:49.644Z,2.60
2023-04-06T00:29:49.582Z,2.50
2023-04-06T00:30:49.590Z,2.80
2023-04-06T00:31:49.571Z,2.60
2023-04-06T00:32:49.640Z,2.70
2023-04-06T00:33:49.614Z,2.70
2023-04-06T00:34:49.554Z,2.60
2023-04-06T00:35:49.529Z,2.80
2023-04-06T00:36:49.508Z,2.70
2023-04-06T00:37:49.508Z,2.80
2023-04-06T00:38:49.566Z,2.70
2023-04-06T00:39:49.477Z,2.90
2023-04-06T00:40:49.475Z,2.50
2023-04-06T00:41:49.456Z,2.80
2023-04-06T00:42:49.469Z,3.00
2023-04-06T00:43:49.506Z,2.80
2023-04-06T00:44:49.426Z,2.70
2023-04-06T00:45:49.493Z,2.60
2023-04-06T00:46:49.429Z,2.70
2023-04-06T00:47:49.442Z,2.80
2023-04-06T00:48:49.450Z,2.70
2023-04-06T00:49:49.395Z,2.30
2023-04-06T00:50:49.360Z,2.70
2023-04-06T00:51:49.350Z,2.60
2023-04-06T00:52:49.340Z,2.40
2023-04-06T00:53:49.403Z,3.00
2023-04-06T00:54:49.319Z,2.40
2023-04-06T00:55:49.310Z,2.50
2023-04-06T00:56:49.318Z,2.50
2023-04-06T00:57:49.289Z,2.70
2023-04-06T00:58:49.387Z,2.60
2023-04-06T00:59:49.290Z,2.60
2023-04-06T01:00:49.333Z,2.60
2023-04-06T01:01:49.298Z,2.50
2023-04-06T01:02:49.385Z,2.60
2023-04-06T01:03:49.241Z,2.70
2023-04-06T01:04:49.242Z,2.80
2023-04-06T01:05:49.421Z,2.90
2023-04-06T01:06:49.315Z,2.70
2023-04-06T01:07:49.199Z,2.70
2023-04-06T01:08:49.222Z,2.60
2023-04-06T01:09:49.180Z,2.50
2023-04-06T01:10:49.242Z,2.70
2023-04-06T01:11:49.148Z,2.70
2023-04-06T01:12:49.136Z,2.60
2023-04-06T01:13:49.141Z,2.50
2023-04-06T01:14:49.123Z,2.50
2023-04-06T01:15:49.208Z,2.70
2023-04-06T01:16:49.175Z,2.70
2023-04-06T01:17:49.108Z,2.70
2023-04-06T01:18:49.116Z,2.80
2023-04-06T01:19:49.078Z,2.90
2023-04-06T01:20:49.065Z,3.00
2023-04-06T01:21:49.252Z,2.90
2023-04-06T01:22:49.086Z,2.80
2023-04-06T01:23:49.032Z,2.90
2023-04-06T01:24:49.018Z,2.60
2023-04-06T01:25:49.000Z,2.80
2023-04-06T01:26:49.105Z,2.70
2023-04-06T01:27:48.983Z,3.00
2023-04-06T01:28:48.986Z,2.70
2023-04-06T01:29:48.963Z,3.10
2023-04-06T01:30:48.966Z,2.90
2023-04-06T01:31:49.128Z,3.00
2023-04-06T01:32:48.999Z,2.80
2023-04-06T01:33:48.939Z,3.10
2023-04-06T01:34:49.040Z,3.10
2023-04-06T01:35:48.945Z,3.20
2023-04-06T01:36:48.904Z,3.20
2023-04-06T01:37:48.876Z,3.30
2023-04-06T01:38:48.907Z,3.60
2023-04-06T01:39:48.868Z,3.30
2023-04-06T01:40:48.919Z,3.20
2023-04-06T01:41:48.880Z,3.20
2023-04-06T01:42:48.834Z,3.10
2023-04-06T01:43:48.841Z,3.20
2023-04-06T01:44:48.820Z,3.10
2023-04-06T01:45:48.868Z,3.00
2023-04-06T01:46:48.832Z,3.20
2023-04-06T01:47:48.845Z,3.50
2023-04-06T01:48:48.783Z,3.30
2023-04-06T01:49:48.763Z,3.10
2023-04-06T01:50:48.823Z,3.00
2023-04-06T01:51:48.729Z,3.00
2023-04-06T01:52:48.747Z,3.50
2023-04-06T01:53:48.727Z,3.30
2023-04-06T01:54:48.730Z,3.20
2023-04-06T01:55:48.772Z,3.10
2023-04-06T01:56:48.686Z,3.10
2023-04-06T01:57:48.680Z,3.30
2023-04-06T01:58:48.721Z,3.10
2023-04-06T01:59:48.675Z,3.00
2023-04-06T02:00:48.805Z,3.00
2023-04-06T02:01:48.711Z,3.30
2023-04-06T02:02:48.639Z,3.10
2023-04-06T02:03:48.613Z,3.00
2023-04-06T02:04:48.610Z,3.30
2023-04-06T02:05:48.653Z,3.20
2023-04-06T02:06:48.613Z,3.20
2023-04-06T02:07:48.589Z,3.40
2023-04-06T02:08:48.566Z,3.40
2023-04-06T02:09:48.574Z,3.50
2023-04-06T02:10:48.621Z,3.40
2023-04-06T02:11:48.534Z,3.50
2023-04-06T02:12:48.539Z,3.50
2023-04-06T02:13:48.516Z,3.50
2023-04-06T02:14:48.500Z,3.80
2023-04-06T02:15:48.574Z,4.00
2023-04-06T02:16:48.518Z,3.70
2023-04-06T02:17:48.496Z,3.50
2023-04-06T02:18:48.487Z,3.30
2023-04-06T02:19:48.452Z,3.20
2023-04-06T02:20:48.506Z,3.20
2023-04-06T02:21:48.492Z,3.10
2023-04-06T02:22:48.441Z,3.10
2023-04-06T02:23:48.417Z,2.90
2023-04-06T02:24:48.417Z,2.90
2023-04-06T02:25:48.464Z,2.90
2023-04-06T02:26:48.385Z,3.10
2023-04-06T02:27:48.369Z,3.10
2023-04-06T02:28:48.369Z,3.10
2023-04-06T02:29:48.358Z,3.40
2023-04-06T02:30:48.428Z,3.30
2023-04-06T02:31:48.425Z,3.20
2023-04-06T02:32:48.370Z,3.50
2023-04-06T02:33:48.347Z,3.50
2023-04-06T02:34:48.304Z,3.10
2023-04-06T02:35:48.375Z,3.00
2023-04-06T02:36:48.341Z,3.20
2023-04-06T02:37:48.293Z,3.00
2023-04-06T02:38:48.299Z,2.90
2023-04-06T02:39:48.263Z,3.00
2023-04-06T02:40:48.263Z,2.60
2023-04-06T02:41:48.291Z,2.90
2023-04-06T02:42:48.219Z,3.00
2023-04-06T02:43:48.227Z,3.40
2023-04-06T02:44:48.218Z,3.20
2023-04-06T02:45:48.224Z,3.50
2023-04-06T02:46:48.245Z,3.30
2023-04-06T02:47:48.251Z,3.20
2023-04-06T02:48:48.154Z,3.20
2023-04-06T02:49:48.700Z,3.30
2023-04-06T02:50:48.141Z,3.30
2023-04-06T02:51:48.120Z,3.10
2023-04-06T02:52:48.176Z,3.10
2023-04-06T02:53:48.116Z,3.50
2023-04-06T02:54:48.115Z,3.30
2023-04-06T02:55:48.105Z,3.30
2023-04-06T02:56:48.082Z,3.20
2023-04-06T02:57:48.221Z,3.20
2023-04-06T02:58:48.092Z,3.70
2023-04-06T02:59:48.055Z,3.70
2023-04-06T03:00:48.127Z,3.80
2023-04-06T03:01:48.113Z,3.30
2023-04-06T03:02:48.110Z,3.40
2023-04-06T03:03:48.178Z,3.50
2023-04-06T03:04:47.993Z,3.20
2023-04-06T03:05:47.975Z,3.40
2023-04-06T03:06:48.103Z,3.40
2023-04-06T03:07:47.986Z,3.40
2023-04-06T03:08:47.954Z,3.80
2023-04-06T03:09:47.946Z,3.60
2023-04-06T03:10:47.943Z,3.60
2023-04-06T03:11:47.974Z,3.80
2023-04-06T03:12:47.932Z,3.70
2023-04-06T03:13:47.906Z,3.30
2023-04-06T03:14:47.913Z,3.40
2023-04-06T03:15:47.909Z,3.50
2023-04-06T03:16:47.962Z,3.60
2023-04-06T03:17:47.889Z,3.60
2023-04-06T03:18:47.861Z,3.30
2023-04-06T03:19:47.851Z,3.40
2023-04-06T03:20:47.828Z,3.50
2023-04-06T03:21:47.886Z,3.50
2023-04-06T03:22:47.815Z,3.60
2023-04-06T03:23:47.850Z,3.60
2023-04-06T03:24:47.806Z,3.20
2023-04-06T03:25:47.774Z,3.10
2023-04-06T03:26:47.984Z,3.50
2023-04-06T03:27:47.778Z,3.50
2023-04-06T03:28:47.755Z,3.60
2023-04-06T03:29:47.759Z,3.70
2023-04-06T03:30:47.738Z,3.70
2023-04-06T03:31:47.839Z,3.70
2023-04-06T03:32:47.791Z,3.70
2023-04-06T03:33:47.703Z,3.50
2023-04-06T03:34:47.749Z,3.30
2023-04-06T03:35:47.723Z,3.20
2023-04-06T03:36:51.619Z,3.10
2023-04-06T03:37:48.677Z,3.00
2023-04-06T03:38:47.702Z,2.90
2023-04-06T03:39:47.690Z,3.00
2023-04-06T03:40:47.616Z,3.00
2023-04-06T03:41:47.617Z,2.90
2023-04-06T03:42:47.608Z,3.40
2023-04-06T03:43:47.596Z,3.10
2023-04-06T03:44:47.707Z,3.40
2023-04-06T03:45:47.568Z,3.40
2023-04-06T03:46:47.739Z,3.70
2023-04-06T03:47:47.570Z,3.60
2023-04-06T03:48:47.537Z,3.50
2023-04-06T03:49:47.604Z,3.30
2023-04-06T03:50:47.554Z,3.40
2023-04-06T03:51:47.520Z,3.20
2023-04-06T03:52:47.517Z,3.40
2023-04-06T03:53:47.565Z,3.40
2023-04-06T03:54:47.492Z,3.50
2023-04-06T03:55:47.485Z,3.70
2023-04-06T03:56:47.468Z,3.60
2023-04-06T03:57:47.447Z,3.80
2023-04-06T03:58:47.461Z,3.60
2023-04-06T03:59:47.484Z,3.70
2023-04-06T04:00:47.497Z,3.60
2023-04-06T04:01:47.464Z,3.40
2023-04-06T04:02:47.480Z,3.50
2023-04-06T04:03:49.524Z,3.30
2023-04-06T04:04:47.497Z,2.80
2023-04-06T04:05:47.388Z,3.20
2023-04-06T04:06:47.367Z,3.10
2023-04-06T04:07:47.359Z,3.40
2023-04-06T04:08:47.336Z,3.30
2023-04-06T04:09:47.407Z,3.50
2023-04-06T04:10:47.361Z,3.10
2023-04-06T04:11:47.319Z,3.20
2023-04-06T04:12:47.293Z,3.30
2023-04-06T04:13:47.331Z,3.20
2023-04-06T04:14:47.296Z,3.40
2023-04-06T04:15:47.371Z,3.00
2023-04-06T04:16:47.300Z,3.30
2023-04-06T04:17:47.286Z,3.30
2023-04-06T04:18:47.235Z,3.30
2023-04-06T04:19:47.232Z,3.60
2023-04-06T04:20:47.399Z,3.20
2023-04-06T04:21:47.189Z,3.40
2023-04-06T04:22:47.188Z,3.40
2023-04-06T04:23:47.192Z,3.50
2023-04-06T04:24:47.171Z,3.70
2023-04-06T04:25:47.222Z,3.60
2023-04-06T04:26:47.189Z,4.00
2023-04-06T04:27:47.136Z,4.10
2023-04-06T04:28:47.143Z,3.90
2023-04-06T04:29:47.130Z,4.00
2023-04-06T04:30:47.182Z,4.20
2023-04-06T04:31:47.165Z,3.90
2023-04-06T04:32:47.179Z,4.10
2023-04-06T04:33:47.103Z,4.10
2023-04-06T04:34:47.114Z,4.20
2023-04-06T04:35:47.233Z,3.80
2023-04-06T04:36:47.060Z,4.00
2023-04-06T04:37:47.105Z,3.90
2023-04-06T04:38:47.051Z,4.10
2023-04-06T04:39:47.041Z,3.90
2023-04-06T04:40:47.124Z,4.20
2023-04-06T04:41:47.027Z,3.80
2023-04-06T04:42:47.038Z,3.80
2023-04-06T04:43:46.988Z,4.40
2023-04-06T04:44:47.009Z,4.00
2023-04-06T04:45:47.001Z,3.90
2023-04-06T04:46:47.027Z,3.90
2023-04-06T04:47:47.111Z,4.00
2023-04-06T04:48:46.973Z,3.90
2023-04-06T04:49:46.932Z,3.60
2023-04-06T04:50:46.928Z,4.20
2023-04-06T04:51:46.967Z,4.10
2023-04-06T04:52:46.910Z,4.00
2023-04-06T04:53:46.888Z,3.70
2023-04-06T04:54:46.878Z,3.90
2023-04-06T04:55:46.868Z,3.70
2023-04-06T04:56:46.940Z,3.40
2023-04-06T04:57:46.848Z,3.60
2023-04-06T04:58:46.837Z,3.70
2023-04-06T04:59:46.895Z,3.30
2023-04-06T05:00:46.818Z,4.10
2023-04-06T05:01:54.889Z,3.90
2023-04-06T05:02:47.897Z,4.10
2023-04-06T05:03:46.883Z,3.80
2023-04-06T05:04:46.885Z,3.90
2023-04-06T05:05:46.765Z,3.70
2023-04-06T05:06:46.827Z,3.80
2023-04-06T05:07:46.752Z,3.60
2023-04-06T05:08:46.758Z,4.00
2023-04-06T05:09:46.934Z,3.60
2023-04-06T05:10:46.729Z,3.80
2023-04-06T05:11:46.713Z,4.00
2023-04-06T05:12:46.690Z,4.00
2023-04-06T05:13:46.684Z,3.70
2023-04-06T05:14:46.729Z,3.70
2023-04-06T05:15:46.707Z,4.00
2023-04-06T05:16:46.662Z,4.00
2023-04-06T05:17:46.671Z,3.90
2023-04-06T05:18:46.682Z,4.10
2023-04-06T05:19:46.699Z,4.40
2023-04-06T05:20:46.623Z,3.90
2023-04-06T05:21:46.614Z,4.40
2023-04-06T05:22:46.610Z,4.70
2023-04-06T05:23:46.591Z,4.60
2023-04-06T05:24:46.654Z,3.90
2023-04-06T05:25:46.575Z,4.00
2023-04-06T05:26:46.603Z,4.10
2023-04-06T05:27:46.593Z,4.10
2023-04-06T05:28:46.531Z,3.90
2023-04-06T05:29:46.581Z,4.20
2023-04-06T05:30:46.527Z,4.20
2023-04-06T05:31:46.603Z,4.00
2023-04-06T05:32:46.539Z,4.20
2023-04-06T05:33:46.509Z,4.40
2023-04-06T05:34:46.551Z,4.40
2023-04-06T05:35:46.523Z,4.10
2023-04-06T05:36:46.461Z,4.20
2023-04-06T05:37:46.733Z,4.50
2023-04-06T05:38:46.423Z,3.90
2023-04-06T05:39:46.478Z,3.80
2023-04-06T05:40:46.406Z,3.80
2023-04-06T05:41:46.389Z,3.80
2023-04-06T05:42:46.397Z,3.80
2023-04-06T05:43:46.371Z,4.30
2023-04-06T05:44:46.375Z,3.90
2023-04-06T05:45:46.432Z,4.40
2023-04-06T05:46:46.419Z,4.50
2023-04-06T05:47:46.392Z,5.00
2023-04-06T05:48:46.321Z,5.10
2023-04-06T05:49:46.323Z,5.40
2023-04-06T05:50:46.392Z,5.40
2023-04-06T05:51:46.311Z,5.80
2023-04-06T05:52:46.292Z,6.10
2023-04-06T05:53:46.263Z,6.20
2023-04-06T05:54:46.297Z,6.30
2023-04-06T05:55:46.330Z,6.90
2023-04-06T05:56:46.241Z,6.40
2023-04-06T05:57:46.306Z,6.20
2023-04-06T05:58:46.246Z,6.70
2023-04-06T05:59:46.266Z,6.50
2023-04-06T06:00:46.260Z,6.20
2023-04-06T06:01:46.220Z,6.50
2023-04-06T06:02:46.320Z,5.70
2023-04-06T06:03:46.164Z,6.00
2023-04-06T06:04:46.248Z,5.90
2023-04-06T06:05:46.145Z,6.00
2023-04-06T06:06:46.153Z,6.20
2023-04-06T06:07:46.224Z,7.20
2023-04-06T06:08:46.141Z,6.30
2023-04-06T06:09:46.112Z,6.60
2023-04-06T06:10:46.096Z,6.80
2023-04-06T06:11:46.098Z,6.50
2023-04-06T06:12:46.155Z,6.60
2023-04-06T06:13:46.083Z,6.60
2023-04-06T06:14:46.047Z,6.70
2023-04-06T06:15:46.110Z,6.70
2023-04-06T06:16:46.180Z,6.80
2023-04-06T06:17:46.079Z,6.50
2023-04-06T06:18:46.008Z,6.90
2023-04-06T06:19:46.010Z,7.30
2023-04-06T06:20:46.019Z,6.80
2023-04-06T06:21:46.057Z,6.90
2023-04-06T06:22:45.991Z,7.20
2023-04-06T06:23:45.967Z,6.70
2023-04-06T06:24:45.945Z,6.70
2023-04-06T06:25:45.941Z,6.60
2023-04-06T06:26:46.000Z,6.70
2023-04-06T06:27:45.922Z,6.70
2023-04-06T06:28:45.918Z,7.10
2023-04-06T06:29:45.932Z,7.10
2023-04-06T06:30:45.894Z,7.00
2023-04-06T06:31:45.975Z,7.20
2023-04-06T06:32:45.927Z,6.70
2023-04-06T06:33:45.871Z,6.60
2023-04-06T06:34:45.860Z,6.60
2023-04-06T06:35:45.850Z,7.00
2023-04-06T06:36:48.062Z,7.10
2023-04-06T06:37:45.907Z,6.80
2023-04-06T06:38:45.829Z,6.70
2023-04-06T06:39:45.820Z,6.70
2023-04-06T06:40:45.804Z,6.60
2023-04-06T06:41:45.823Z,6.30
2023-04-06T06:42:45.820Z,6.50
2023-04-06T06:43:45.791Z,6.00
2023-04-06T06:44:45.763Z,6.60
2023-04-06T06:45:45.835Z,6.60
2023-04-06T06:46:45.758Z,6.50
2023-04-06T06:47:45.833Z,6.80
2023-04-06T06:48:45.742Z,6.60
2023-04-06T06:49:45.691Z,6.40
2023-04-06T06:50:45.754Z,6.40
2023-04-06T06:51:45.690Z,6.00
2023-04-06T06:52:45.675Z,5.90
2023-04-06T06:53:45.745Z,6.30
2023-04-06T06:54:53.305Z,6.10
2023-04-06T06:56:13.360Z,5.60
2023-04-06T06:56:45.635Z,5.10
2023-04-06T06:57:45.626Z,5.60
2023-04-06T06:58:45.706Z,5.40
2023-04-06T06:59:45.602Z,5.50
2023-04-06T07:00:45.629Z,5.20
2023-04-06T07:01:45.596Z,4.80
2023-04-06T07:02:45.597Z,4.10
2023-04-06T07:03:45.604Z,4.90
2023-04-06T07:04:45.901Z,4.40
2023-04-06T07:05:45.537Z,4.20
2023-04-06T07:06:45.544Z,5.10
2023-04-06T07:07:45.621Z,4.90
2023-04-06T07:08:45.509Z,5.20
2023-04-06T07:09:46.511Z,5.40
2023-04-06T07:10:46.519Z,5.40
2023-04-06T07:11:45.541Z,5.00
2023-04-06T07:12:45.563Z,5.30
2023-04-06T07:13:45.461Z,4.90
2023-04-06T07:14:45.450Z,4.90
2023-04-06T07:15:45.429Z,4.90
2023-04-06T07:16:45.518Z,5.30
2023-04-06T07:17:45.418Z,5.00
2023-04-06T07:18:45.411Z,4.90
2023-04-06T07:19:45.389Z,5.10
2023-04-06T07:20:45.442Z,4.90
2023-04-06T07:21:45.445Z,5.60
2023-04-06T07:22:45.367Z,5.60
2023-04-06T07:23:45.344Z,5.10
2023-04-06T07:24:45.357Z,5.70
2023-04-06T07:25:45.328Z,5.40
2023-04-06T07:26:45.415Z,4.90
2023-04-06T07:27:45.303Z,5.50
2023-04-06T07:28:45.394Z,5.20
2023-04-06T07:29:45.275Z,5.20
2023-04-06T07:30:45.323Z,5.40
2023-04-06T07:31:45.335Z,5.40
2023-04-06T07:32:45.338Z,5.00
2023-04-06T07:33:45.389Z,5.90
2023-04-06T07:34:45.291Z,6.10
2023-04-06T07:35:45.379Z,6.10
2023-04-06T07:36:45.205Z,6.20
2023-04-06T07:37:45.248Z,6.50
2023-04-06T07:38:45.183Z,6.00
2023-04-06T07:39:45.181Z,6.30
2023-04-06T07:40:45.293Z,6.40
2023-04-06T07:41:45.194Z,6.00
2023-04-06T07:42:45.168Z,6.50
2023-04-06T07:43:45.138Z,6.70
2023-04-06T07:44:45.178Z,5.80
2023-04-06T07:45:45.149Z,5.90
2023-04-06T07:46:45.178Z,6.70
2023-04-06T07:47:45.152Z,6.60
2023-04-06T07:48:45.084Z,5.50
2023-04-06T07:49:45.113Z,6.80
2023-04-06T07:50:45.074Z,6.50
2023-04-06T07:51:45.044Z,6.80
2023-04-06T07:52:45.078Z,6.20
2023-04-06T07:53:45.025Z,6.20
2023-04-06T07:54:45.062Z,6.50
2023-04-06T07:55:45.001Z,6.10
2023-04-06T07:56:45.091Z,6.70
2023-04-06T07:57:44.980Z,7.00
2023-04-06T07:58:44.984Z,6.00
2023-04-06T07:59:45.090Z,6.70
2023-04-06T08:00:44.969Z,6.40
2023-04-06T08:01:45.945Z,7.00
2023-04-06T08:02:45.086Z,6.40
2023-04-06T08:03:45.254Z,6.50
2023-04-06T08:04:45.807Z,6.30
2023-04-06T08:05:44.893Z,5.80
2023-04-06T08:06:44.909Z,6.70
2023-04-06T08:07:44.936Z,7.20
2023-04-06T08:08:44.863Z,6.40
2023-04-06T08:09:44.882Z,7.00
2023-04-06T08:10:44.839Z,7.10
2023-04-06T08:11:45.016Z,6.20
2023-04-06T08:12:44.843Z,6.50
2023-04-06T08:13:44.824Z,6.50
2023-04-06T08:14:44.816Z,5.90
2023-04-06T08:15:44.820Z,5.90
2023-04-06T08:16:44.862Z,6.10
2023-04-06T08:17:44.800Z,6.60
2023-04-06T08:18:44.753Z,6.20
2023-04-06T08:19:44.746Z,7.10
2023-04-06T08:20:44.744Z,6.80
2023-04-06T08:21:44.751Z,6.60
2023-04-06T08:22:44.788Z,6.00
2023-04-06T08:23:44.739Z,6.30
2023-04-06T08:24:44.689Z,5.70
2023-04-06T08:25:44.697Z,6.40
2023-04-06T08:26:44.768Z,6.30
2023-04-06T08:27:44.673Z,6.60
2023-04-06T08:28:46.921Z,6.50
2023-04-06T08:29:44.660Z,6.30
2023-04-06T08:30:44.763Z,6.30
2023-04-06T08:31:44.704Z,6.60
2023-04-06T08:32:44.670Z,6.50
2023-04-06T08:33:44.624Z,6.10
2023-04-06T08:34:44.585Z,5.70
2023-04-06T08:35:44.642Z,5.80
2023-04-06T08:36:44.573Z,6.10
2023-04-06T08:37:44.612Z,5.90
2023-04-06T08:38:44.620Z,6.00
2023-04-06T08:39:44.611Z,5.90
2023-04-06T08:40:44.534Z,5.80
2023-04-06T08:41:44.531Z,5.60
2023-04-06T08:42:44.568Z,5.80
2023-04-06T08:43:44.504Z,6.30
2023-04-06T08:44:44.488Z,5.90
2023-04-06T08:45:44.477Z,5.70
2023-04-06T08:46:44.517Z,6.30
2023-04-06T08:47:44.551Z,5.50
2023-04-06T08:48:44.464Z,5.40
2023-04-06T08:49:44.423Z,5.40
2023-04-06T08:50:44.440Z,5.80
2023-04-06T08:51:44.427Z,5.80
2023-04-06T08:52:44.444Z,6.00
2023-04-06T08:53:44.386Z,6.00
2023-04-06T08:54:44.386Z,5.30
2023-04-06T08:55:44.384Z,5.60
2023-04-06T08:56:44.376Z,6.60
2023-04-06T08:57:44.421Z,6.60
2023-04-06T08:58:44.403Z,6.10
2023-04-06T08:59:44.388Z,6.70
2023-04-06T09:00:44.321Z,7.20
2023-04-06T09:01:44.422Z,6.90
2023-04-06T09:02:44.477Z,6.50
2023-04-06T09:03:44.407Z,6.00
2023-04-06T09:04:44.360Z,6.00
2023-04-06T09:05:44.269Z,6.50
2023-04-06T09:06:44.260Z,6.90
2023-04-06T09:07:44.309Z,6.50
2023-04-06T09:08:44.239Z,6.00
2023-04-06T09:09:44.263Z,5.70
2023-04-06T09:10:44.212Z,6.60
2023-04-06T09:11:44.271Z,6.40
2023-04-06T09:12:44.261Z,6.10
2023-04-06T09:13:44.198Z,6.20
2023-04-06T09:16:23.860Z,10.70
2023-04-06T09:16:54.383Z,7.50
2023-04-06T09:17:53.530Z,5.60
2023-04-06T09:18:53.365Z,5.90
2023-04-06T09:19:53.379Z,6.20
2023-04-06T09:20:53.429Z,5.70
2023-04-06T09:21:53.333Z,6.10
2023-04-06T09:22:53.431Z,6.10
2023-04-06T09:23:53.370Z,6.30
2023-04-06T09:24:53.315Z,5.60
2023-04-06T09:25:53.305Z,5.30
2023-04-06T09:26:53.352Z,5.40
2023-04-06T09:27:53.314Z,5.60
2023-04-06T09:28:53.279Z,5.80
2023-04-06T09:29:53.272Z,6.10
2023-04-06T09:30:53.244Z,6.80
2023-04-06T09:31:53.358Z,6.20
2023-04-06T09:32:53.415Z,5.80
2023-04-06T09:33:53.226Z,6.30
2023-04-06T09:34:53.198Z,5.60
2023-04-06T09:35:53.332Z,5.90
2023-04-06T09:36:53.184Z,6.30
2023-04-06T09:37:53.187Z,6.30
2023-04-06T09:38:53.160Z,5.70
2023-04-06T09:39:53.159Z,5.90
2023-04-06T09:41:00.233Z,6.20
2023-04-06T09:41:54.158Z,5.80
2023-04-06T09:42:53.113Z,5.00
2023-04-06T09:43:53.132Z,5.10
2023-04-06T09:44:53.186Z,6.50
2023-04-06T09:45:53.173Z,6.00
2023-04-06T09:47:00.197Z,6.20
2023-04-06T09:47:54.144Z,6.30
2023-04-06T09:48:53.051Z,5.90
2023-04-06T09:49:53.180Z,6.20
2023-04-06T09:50:53.053Z,6.20
2023-04-06T09:51:53.034Z,6.60
2023-04-06T09:52:53.074Z,6.40
2023-04-06T09:53:52.999Z,6.60
2023-04-06T09:54:53.008Z,7.90
2023-04-06T09:55:52.991Z,6.90
2023-04-06T09:56:53.071Z,6.40
2023-04-06T09:57:52.957Z,7.40
2023-04-06T09:58:53.064Z,7.30
2023-04-06T09:59:53.217Z,7.90
2023-04-06T10:00:54.504Z,7.80
2023-04-06T10:01:52.925Z,8.00
2023-04-06T10:02:53.094Z,7.70
2023-04-06T10:03:53.061Z,8.00
2023-04-06T10:04:52.877Z,7.80
2023-04-06T10:05:52.875Z,7.50
2023-04-06T10:06:52.930Z,7.70
2023-04-06T10:08:00.433Z,8.10
2023-04-06T10:08:53.838Z,7.20
2023-04-06T10:09:52.846Z,7.80
2023-04-06T10:10:52.818Z,8.10
2023-04-06T10:11:52.807Z,8.70
2023-04-06T10:12:52.857Z,7.60
2023-04-06T10:13:52.789Z,7.70
2023-04-06T10:14:52.791Z,7.30
2023-04-06T10:15:52.799Z,7.30
2023-04-06T10:16:52.828Z,8.30
2023-04-06T10:17:53.085Z,8.00
2023-04-06T10:18:52.723Z,7.80
2023-04-06T10:19:52.745Z,7.90
2023-04-06T10:20:52.727Z,8.10
2023-04-06T10:21:52.713Z,8.30
2023-04-06T10:22:52.749Z,8.10
2023-04-06T10:23:52.721Z,8.50
2023-04-06T10:24:52.673Z,8.40
2023-04-06T10:25:52.664Z,9.10
2023-04-06T10:26:52.660Z,9.30
2023-04-06T10:27:52.695Z,8.70
2023-04-06T10:28:52.629Z,8.80
2023-04-06T10:29:53.548Z,9.20
2023-04-06T10:30:52.617Z,9.70
2023-04-06T10:31:52.664Z,9.70
2023-04-06T10:32:52.744Z,10.00
2023-04-06T10:33:52.588Z,8.80
2023-04-06T10:34:52.562Z,8.90
2023-04-06T10:35:52.564Z,8.80
2023-04-06T10:36:52.548Z,9.30
2023-04-06T10:37:52.697Z,8.40
2023-04-06T10:38:52.523Z,8.90
2023-04-06T10:39:52.508Z,8.30
2023-04-06T10:40:52.523Z,8.20
2023-04-06T10:41:52.496Z,8.00
2023-04-06T10:42:52.559Z,8.40
2023-04-06T10:43:52.661Z,9.20
2023-04-06T10:44:52.478Z,8.70
2023-04-06T10:45:52.511Z,8.50
2023-04-06T10:46:53.475Z,8.30
2023-04-06T10:47:52.562Z,8.10
2023-04-06T10:48:52.426Z,9.90
2023-04-06T10:49:52.437Z,9.40
2023-04-06T10:50:52.398Z,9.30
2023-04-06T10:51:52.410Z,9.90
2023-04-06T10:52:52.428Z,9.70
2023-04-06T10:53:52.453Z,9.40
2023-04-06T10:54:52.369Z,9.70
2023-04-06T10:55:52.386Z,8.70
2023-04-06T10:56:52.342Z,9.70
2023-04-06T10:57:52.330Z,11.20
2023-04-06T10:58:52.397Z,9.60
2023-04-06T10:59:52.308Z,9.10
2023-04-06T11:00:52.448Z,10.10
2023-04-06T11:01:52.456Z,10.20
2023-04-06T11:02:52.287Z,10.70
2023-04-06T11:03:52.394Z,9.90
2023-04-06T11:04:52.257Z,10.20
2023-04-06T11:05:52.282Z,10.50
2023-04-06T11:06:53.264Z,10.20
2023-04-06T11:07:52.288Z,9.60
2023-04-06T11:08:52.201Z,9.50
2023-04-06T11:10:11.253Z,10.80
2023-04-06T11:10:53.202Z,10.70
2023-04-06T11:11:52.250Z,10.00
2023-04-06T11:12:52.215Z,10.40
2023-04-06T11:13:52.163Z,9.80
2023-04-06T11:14:52.146Z,9.80
2023-04-06T11:15:52.124Z,9.40
2023-04-06T11:16:52.261Z,9.50
2023-04-06T11:17:52.252Z,9.40
2023-04-06T11:18:52.115Z,9.00
2023-04-06T11:19:52.290Z,9.60
2023-04-06T11:20:52.129Z,10.50
2023-04-06T11:21:52.136Z,9.80
2023-04-06T11:22:52.069Z,9.30
2023-04-06T11:23:52.082Z,9.90
2023-04-06T11:24:52.029Z,10.20
2023-04-06T11:25:52.156Z,9.90
2023-04-06T11:26:52.028Z,9.20
2023-04-06T11:27:52.000Z,9.60
2023-04-06T11:28:51.989Z,9.60
2023-04-06T11:29:51.972Z,9.00
2023-04-06T11:30:52.060Z,9.60
2023-04-06T11:31:52.106Z,8.40
2023-04-06T11:32:52.003Z,9.90
2023-04-06T11:33:51.945Z,9.30
2023-04-06T11:34:51.934Z,10.00
2023-04-06T11:35:52.005Z,10.50
2023-04-06T11:36:51.964Z,10.40
2023-04-06T11:37:51.942Z,10.50
2023-04-06T11:38:51.886Z,11.10
2023-04-06T11:39:51.976Z,10.50
2023-04-06T11:40:51.857Z,9.90
2023-04-06T11:41:51.932Z,10.00
2023-04-06T11:42:51.910Z,10.80
2023-04-06T11:43:51.844Z,10.40
2023-04-06T11:44:51.869Z,10.00
2023-04-06T11:45:51.855Z,9.00
2023-04-06T11:46:51.883Z,8.60
2023-04-06T11:47:51.847Z,10.20
2023-04-06T11:48:51.831Z,10.00
2023-04-06T11:49:51.772Z,9.00
2023-04-06T11:50:51.761Z,9.10
2023-04-06T11:51:51.796Z,9.90
2023-04-06T11:52:51.808Z,10.30
2023-04-06T11:53:51.734Z,10.00
2023-04-06T11:54:51.710Z,9.70
2023-04-06T11:55:51.712Z,9.40
2023-04-06T11:56:51.695Z,9.20
2023-04-06T11:57:51.774Z,8.90
2023-04-06T11:58:51.718Z,8.30
2023-04-06T11:59:51.745Z,9.80
2023-04-06T12:00:51.655Z,8.90
2023-04-06T12:01:51.639Z,8.80
2023-04-06T12:02:51.733Z,9.10
2023-04-06T12:03:51.813Z,9.10
2023-04-06T12:04:51.707Z,9.10
2023-04-06T12:05:51.610Z,8.70
2023-04-06T12:06:51.614Z,8.30
2023-04-06T12:07:51.609Z,7.80
2023-04-06T12:08:51.571Z,9.40
2023-04-06T12:09:51.602Z,9.20
2023-04-06T12:10:51.607Z,10.30
2023-04-06T12:11:51.550Z,10.00
2023-04-06T12:12:51.544Z,10.60
2023-04-06T12:13:51.602Z,10.10
2023-04-06T12:14:51.946Z,9.80
2023-04-06T12:15:51.680Z,9.20
2023-04-06T12:16:51.718Z,8.20
2023-04-06T12:17:51.504Z,8.70
2023-04-06T12:18:51.454Z,8.00
2023-04-06T12:19:51.536Z,8.00
2023-04-06T12:20:51.648Z,8.90
2023-04-06T12:21:51.491Z,8.60
2023-04-06T12:22:51.419Z,9.20
2023-04-06T12:23:51.395Z,8.50
2023-04-06T12:24:51.442Z,9.20
2023-04-06T12:25:51.463Z,8.50
2023-04-06T12:26:54.141Z,8.10
2023-04-06T12:27:52.380Z,9.60
2023-04-06T12:28:51.361Z,9.10
2023-04-06T12:29:51.377Z,10.00
2023-04-06T12:30:51.380Z,10.10
2023-04-06T12:31:51.410Z,8.80
2023-04-06T12:32:51.486Z,9.40
2023-04-06T12:33:51.314Z,9.60
2023-04-06T12:34:51.294Z,10.20
2023-04-06T12:35:51.365Z,10.10
2023-04-06T12:36:51.354Z,10.20
2023-04-06T12:37:51.251Z,10.40
2023-04-06T12:38:51.261Z,9.30
2023-04-06T12:39:51.246Z,9.10
2023-04-06T12:40:51.716Z,9.20
2023-04-06T12:41:51.265Z,9.30
2023-04-06T12:42:51.200Z,8.80
2023-04-06T12:43:51.198Z,9.30
2023-04-06T12:44:51.211Z,10.40
2023-04-06T12:45:51.186Z,9.40
2023-04-06T12:46:51.275Z,9.20
2023-04-06T12:47:51.231Z,9.80
2023-04-06T12:48:51.140Z,9.20
2023-04-06T12:49:51.134Z,8.50
2023-04-06T12:50:51.155Z,8.40
2023-04-06T12:51:51.207Z,7.90
2023-04-06T12:52:51.098Z,8.40
2023-04-06T12:53:51.109Z,7.40
2023-04-06T12:54:51.472Z,7.20
2023-04-06T12:55:51.076Z,8.30
2023-04-06T12:56:51.120Z,8.20
2023-04-06T12:57:51.049Z,9.50
2023-04-06T12:58:51.167Z,8.90
2023-04-06T12:59:51.104Z,9.80
2023-04-06T13:00:51.083Z,9.60
2023-04-06T13:01:51.116Z,10.90
2023-04-06T13:02:51.131Z,16.90
2023-04-06T13:03:50.983Z,13.10
2023-04-06T13:04:51.035Z,10.80
2023-04-06T13:05:50.960Z,9.40
2023-04-06T13:06:51.031Z,9.00
2023-04-06T13:07:50.949Z,9.00
2023-04-06T13:08:50.925Z,9.00
2023-04-06T13:09:50.931Z,8.60
2023-04-06T13:10:50.901Z,8.60
2023-04-06T13:11:50.935Z,8.30
2023-04-06T13:12:50.933Z,8.80
2023-04-06T13:13:50.935Z,8.60
2023-04-06T13:14:50.867Z,9.10
2023-04-06T13:15:50.864Z,8.90
2023-04-06T13:16:50.982Z,8.60
2023-04-06T13:17:50.924Z,8.90
2023-04-06T13:18:50.926Z,8.50